createdAt,value
2019-02-25T00:01:11.777Z,13.27
2019-02-25T00:03:41.332Z,13.37
2019-02-25T00:06:10.819Z,14.00
2019-02-25T00:08:40.281Z,13.57
2019-02-25T00:11:09.869Z,12.67
2019-02-25T00:13:39.626Z,14.97
2019-02-25T00:16:09.626Z,12.17
2019-02-25T00:18:39.092Z,12.63
2019-02-25T00:21:08.576Z,12.47
2019-02-25T00:23:38.060Z,12.43
2019-02-25T00:26:07.536Z,14.80
2019-02-25T00:28:37.011Z,13.63
2019-02-25T00:31:06.494Z,12.87
2019-02-25T00:33:35.951Z,13.97
2019-02-25T00:36:05.428Z,14.83
2019-02-25T00:38:34.921Z,12.87
2019-02-25T00:41:04.414Z,13.00
2019-02-25T00:43:33.899Z,12.90
2019-02-25T00:46:03.379Z,13.40
2019-02-25T00:48:33.017Z,12.43
2019-02-25T00:51:02.491Z,12.07
2019-02-25T00:53:31.959Z,12.20
2019-02-25T00:56:01.436Z,13.17
2019-02-25T00:58:30.899Z,11.10
2019-02-25T01:01:00.412Z,14.37
2019-02-25T01:03:30.380Z,11.60
2019-02-25T01:05:59.980Z,13.90
2019-02-25T01:08:29.405Z,11.87
2019-02-25T01:10:58.898Z,11.60
2019-02-25T01:13:28.353Z,12.17
2019-02-25T01:15:57.838Z,12.63
2019-02-25T01:18:27.314Z,11.47
2019-02-25T01:20:57.103Z,12.77
2019-02-25T01:23:26.562Z,11.63
2019-02-25T01:25:56.064Z,12.40
2019-02-25T01:28:25.529Z,11.77
2019-02-25T01:30:55.087Z,11.47
2019-02-25T01:33:24.547Z,12.83
2019-02-25T01:35:54.040Z,13.33
2019-02-25T01:38:23.577Z,12.40
2019-02-25T01:40:53.102Z,12.20
2019-02-25T01:43:22.612Z,12.27
2019-02-25T01:45:52.092Z,12.53
2019-02-25T01:48:21.618Z,10.33
2019-02-25T01:50:51.068Z,13.27
2019-02-25T01:53:20.581Z,11.67
2019-02-25T01:55:50.655Z,14.50
2019-02-25T01:58:20.248Z,11.50
2019-02-25T02:00:49.747Z,11.27
2019-02-25T02:03:19.221Z,13.97
2019-02-25T02:05:48.867Z,12.10
2019-02-25T02:08:18.663Z,11.90
2019-02-25T02:10:48.304Z,13.07
2019-02-25T02:13:17.931Z,11.57
2019-02-25T02:15:47.458Z,13.73
2019-02-25T02:18:17.585Z,12.83
2019-02-25T02:20:47.233Z,12.33
2019-02-25T02:23:16.797Z,13.33
2019-02-25T02:25:46.278Z,11.63
2019-02-25T02:28:15.758Z,13.80
2019-02-25T02:30:46.747Z,11.53
2019-02-25T02:33:16.577Z,12.77
2019-02-25T02:35:46.109Z,11.07
2019-02-25T02:38:15.610Z,12.93
2019-02-25T02:40:45.073Z,11.03
2019-02-25T02:43:14.550Z,12.87
2019-02-25T02:45:50.651Z,11.53
2019-02-25T02:48:29.046Z,11.90
2019-02-25T02:50:58.776Z,11.43
2019-02-25T02:53:28.267Z,11.07
2019-02-25T02:55:57.725Z,11.47
2019-02-25T02:58:27.208Z,11.03
2019-02-25T03:00:56.679Z,12.00
2019-02-25T03:03:26.167Z,14.47
2019-02-25T03:05:55.680Z,11.70
2019-02-25T03:08:25.128Z,13.00
2019-02-25T03:10:54.950Z,10.93
2019-02-25T03:13:24.428Z,13.67
2019-02-25T03:15:54.264Z,14.27
2019-02-25T03:18:23.728Z,11.77
2019-02-25T03:20:53.187Z,13.87
2019-02-25T03:23:22.694Z,11.20
2019-02-25T03:25:52.208Z,13.47
2019-02-25T03:28:21.688Z,11.47
2019-02-25T03:30:51.503Z,11.77
2019-02-25T03:33:20.990Z,13.73
2019-02-25T03:35:50.450Z,13.03
2019-02-25T03:38:19.929Z,13.90
2019-02-25T03:40:49.461Z,11.23
2019-02-25T03:43:19.325Z,13.07
2019-02-25T03:45:48.863Z,12.37
2019-02-25T03:48:18.387Z,13.73
2019-02-25T03:50:47.851Z,12.00
2019-02-25T03:53:17.657Z,13.77
2019-02-25T03:55:47.212Z,14.03
2019-02-25T03:58:16.672Z,14.23
2019-02-25T04:00:46.703Z,12.87
2019-02-25T04:03:16.252Z,11.40
2019-02-25T04:05:45.880Z,13.80
2019-02-25T04:08:15.373Z,11.87
2019-02-25T04:10:44.942Z,13.80
2019-02-25T04:13:14.748Z,11.27
2019-02-25T04:15:44.983Z,14.40
2019-02-25T04:18:14.464Z,11.70
2019-02-25T04:20:43.921Z,14.77
2019-02-25T04:23:13.395Z,11.97
2019-02-25T04:25:42.878Z,13.87
2019-02-25T04:28:12.688Z,13.17
2019-02-25T04:30:42.169Z,13.43
2019-02-25T04:33:11.652Z,12.60
2019-02-25T04:35:41.133Z,14.40
2019-02-25T04:38:10.993Z,14.80
2019-02-25T04:40:40.458Z,12.07
2019-02-25T04:43:10.353Z,14.90
2019-02-25T04:45:39.834Z,12.83
2019-02-25T04:48:09.575Z,13.70
2019-02-25T04:50:39.040Z,12.37
2019-02-25T04:53:08.513Z,15.23
2019-02-25T04:55:37.977Z,13.23
2019-02-25T04:58:07.882Z,15.20
2019-02-25T05:00:37.711Z,13.67
2019-02-25T05:03:09.143Z,15.60
2019-02-25T05:05:39.069Z,12.53
2019-02-25T05:08:08.533Z,13.87
2019-02-25T05:10:38.274Z,15.03
2019-02-25T05:13:08.623Z,11.93
2019-02-25T05:15:38.189Z,15.10
2019-02-25T05:18:07.643Z,12.20
2019-02-25T05:20:37.334Z,14.93
2019-02-25T05:23:07.137Z,12.73
2019-02-25T05:25:36.606Z,14.50
2019-02-25T05:28:06.096Z,12.10
2019-02-25T05:30:35.922Z,13.97
2019-02-25T05:33:06.338Z,14.37
2019-02-25T05:35:36.016Z,13.90
2019-02-25T05:38:05.497Z,15.03
2019-02-25T05:40:34.966Z,12.27
2019-02-25T05:43:05.033Z,14.20
2019-02-25T05:45:34.762Z,15.27
2019-02-25T05:48:04.329Z,13.57
2019-02-25T05:50:33.779Z,15.83
2019-02-25T05:53:03.256Z,13.53
2019-02-25T05:55:32.746Z,15.40
2019-02-25T05:58:02.218Z,15.23
2019-02-25T06:00:33.577Z,13.23
2019-02-25T06:03:04.250Z,14.50
2019-02-25T06:05:33.734Z,12.83
2019-02-25T06:08:03.204Z,15.90
2019-02-25T06:10:32.677Z,13.27
2019-02-25T06:13:02.177Z,14.57
2019-02-25T06:15:31.926Z,13.60
2019-02-25T06:18:01.434Z,15.90
2019-02-25T06:20:30.920Z,12.33
2019-02-25T06:23:00.384Z,15.00
2019-02-25T06:25:29.982Z,13.70
2019-02-25T06:27:59.423Z,13.20
2019-02-25T06:30:31.155Z,12.77
2019-02-25T06:33:01.311Z,11.87
2019-02-25T06:35:31.219Z,12.57
2019-02-25T06:38:00.670Z,12.70
2019-02-25T06:40:30.144Z,14.13
2019-02-25T06:42:59.615Z,13.50
2019-02-25T06:45:36.863Z,13.53
2019-02-25T06:48:06.344Z,13.00
2019-02-25T06:50:35.816Z,13.53
2019-02-25T06:53:05.302Z,13.40
2019-02-25T06:55:34.775Z,13.57
2019-02-25T06:58:04.549Z,13.93
2019-02-25T07:00:34.424Z,13.43
2019-02-25T07:03:04.423Z,13.83
2019-02-25T07:05:50.307Z,13.87
2019-02-25T07:08:21.416Z,14.67
2019-02-25T07:10:52.633Z,13.90
2019-02-25T07:13:23.750Z,13.73
2019-02-25T07:15:54.859Z,13.27
2019-02-25T07:18:42.390Z,13.80
2019-02-25T07:21:25.294Z,13.87
2019-02-25T07:24:14.588Z,13.77
2019-02-25T07:27:02.027Z,12.90
2019-02-25T07:29:33.153Z,14.57
2019-02-25T07:32:04.254Z,14.37
2019-02-25T07:34:41.170Z,15.13
2019-02-25T07:37:18.238Z,15.40
2019-02-25T07:39:58.026Z,15.60
2019-02-25T07:42:45.360Z,15.00
2019-02-25T07:45:33.667Z,16.53
2019-02-25T07:48:05.016Z,16.03
2019-02-25T07:50:47.207Z,14.77
2019-02-25T07:53:17.839Z,15.50
2019-02-25T07:56:02.077Z,14.83
2019-02-25T07:58:27.881Z,15.60
2019-02-25T08:01:27.678Z,15.07
2019-02-25T08:04:02.484Z,15.93
2019-02-25T08:06:37.976Z,15.33
2019-02-25T08:09:29.394Z,16.17
2019-02-25T08:12:37.097Z,16.90
2019-02-25T08:15:20.784Z,16.73
2019-02-25T08:18:14.869Z,16.30
2019-02-25T08:21:15.977Z,16.57
2019-02-25T08:24:04.311Z,16.40
2019-02-25T08:26:45.428Z,16.60
2019-02-25T08:29:30.665Z,14.37
2019-02-25T08:32:28.197Z,14.67
2019-02-25T08:35:19.231Z,16.20
2019-02-25T08:38:03.882Z,16.57
2019-02-25T08:41:04.862Z,15.90
2019-02-25T08:43:47.576Z,15.10
2019-02-25T08:46:29.570Z,14.10
2019-02-25T08:49:06.466Z,14.60
2019-02-25T08:51:45.978Z,14.53
2019-02-25T08:54:21.729Z,14.47
2019-02-25T08:56:54.218Z,14.07
2019-02-25T08:59:41.672Z,13.67
2019-02-25T09:02:10.353Z,13.43
2019-02-25T09:04:58.830Z,13.27
2019-02-25T09:07:42.580Z,12.43
2019-02-25T09:13:37.209Z,12.50
2019-02-25T09:16:15.836Z,13.57
2019-02-25T09:18:48.553Z,13.50
2019-02-25T09:21:33.688Z,13.00
2019-02-25T09:24:06.339Z,13.43
2019-02-25T09:26:44.771Z,13.17
2019-02-25T09:29:35.732Z,14.77
2019-02-25T09:32:13.082Z,13.70
2019-02-25T09:34:51.001Z,12.13
2019-02-25T09:37:31.177Z,10.98
2019-02-25T09:40:06.442Z,10.43
2019-02-25T09:42:45.092Z,8.98
2019-02-25T09:45:21.257Z,13.08
2019-02-25T09:48:03.579Z,10.58
2019-02-25T09:50:38.562Z,11.15
2019-02-25T09:53:12.934Z,10.70
2019-02-25T09:56:12.827Z,10.60
2019-02-25T09:59:05.677Z,10.43
2019-02-25T10:01:38.754Z,11.70
2019-02-25T10:04:15.916Z,10.82
2019-02-25T10:06:48.304Z,10.75
2019-02-25T10:09:29.772Z,10.82
2019-02-25T10:12:10.650Z,10.53
2019-02-25T10:14:46.287Z,11.10
2019-02-25T10:17:38.040Z,9.88
2019-02-25T10:20:16.939Z,10.28
2019-02-25T10:22:58.802Z,11.00
2019-02-25T10:25:38.829Z,10.75
2019-02-25T10:28:18.334Z,11.38
2019-02-25T10:30:53.300Z,12.05
2019-02-25T10:33:27.807Z,10.82
2019-02-25T10:36:09.631Z,11.78
2019-02-25T10:38:45.608Z,10.65
2019-02-25T10:41:27.862Z,9.78
2019-02-25T10:43:55.286Z,9.68
2019-02-25T10:46:39.033Z,9.48
2019-02-25T10:49:17.307Z,10.13
2019-02-25T10:51:56.171Z,9.88
2019-02-25T10:54:28.506Z,9.33
2019-02-25T10:57:13.524Z,8.73
2019-02-25T10:59:53.013Z,8.73
2019-02-25T11:02:30.989Z,8.77
2019-02-25T11:04:59.761Z,9.00
2019-02-25T11:07:35.450Z,8.87
2019-02-25T11:10:30.260Z,8.83
2019-02-25T11:13:09.895Z,8.43
2019-02-25T11:15:55.199Z,8.30
2019-02-25T11:18:30.540Z,8.63
2019-02-25T11:21:17.070Z,9.03
2019-02-25T11:23:54.048Z,10.17
2019-02-25T11:26:35.188Z,9.10
2019-02-25T11:29:18.811Z,8.30
2019-02-25T11:32:09.439Z,8.63
2019-02-25T11:34:57.735Z,10.13
2019-02-25T11:37:41.239Z,8.38
2019-02-25T11:40:19.802Z,7.90
2019-02-25T11:42:58.180Z,8.73
2019-02-25T11:45:39.482Z,7.78
2019-02-25T11:48:10.010Z,8.10
2019-02-25T11:50:44.718Z,7.67
2019-02-25T11:53:13.830Z,9.47
2019-02-25T11:55:51.906Z,9.63
2019-02-25T11:58:27.500Z,8.83
2019-02-25T12:01:12.272Z,8.20
2019-02-25T12:03:48.842Z,8.23
2019-02-25T12:06:28.567Z,8.80
2019-02-25T12:09:07.330Z,8.97
2019-02-25T12:11:44.112Z,12.30
2019-02-25T12:14:31.169Z,9.73
2019-02-25T12:17:01.935Z,9.67
2019-02-25T12:19:34.174Z,9.70
2019-02-25T12:22:10.142Z,8.97
2019-02-25T12:24:44.891Z,9.33
2019-02-25T12:27:25.902Z,9.43
2019-02-25T12:30:02.717Z,10.00
2019-02-25T12:32:43.730Z,9.60
2019-02-25T12:35:22.670Z,9.80
2019-02-25T12:38:05.062Z,10.43
2019-02-25T12:40:59.922Z,11.33
2019-02-25T12:43:32.041Z,11.35
2019-02-25T12:46:07.996Z,11.03
2019-02-25T12:48:50.226Z,10.47
2019-02-25T12:51:40.042Z,11.30
2019-02-25T12:54:18.453Z,12.40
2019-02-25T12:57:08.325Z,11.55
2019-02-25T12:59:50.073Z,11.48
2019-02-25T13:02:22.806Z,11.05
2019-02-25T13:05:05.896Z,11.40
2019-02-25T13:07:42.750Z,11.23
2019-02-25T13:10:19.064Z,11.07
2019-02-25T13:12:53.633Z,10.93
2019-02-25T13:15:26.358Z,10.77
2019-02-25T13:18:00.201Z,10.23
2019-02-25T13:20:59.610Z,10.43
2019-02-25T13:23:41.712Z,10.60
2019-02-25T13:26:07.334Z,11.95
2019-02-25T13:28:46.795Z,14.85
2019-02-25T13:31:20.832Z,13.15
2019-02-25T13:34:06.253Z,10.50
2019-02-25T13:36:45.803Z,11.15
2019-02-25T13:39:18.534Z,12.63
2019-02-25T13:41:54.895Z,10.23
2019-02-25T13:44:26.545Z,10.17
2019-02-25T13:47:02.160Z,9.38
2019-02-25T13:49:37.474Z,10.07
2019-02-25T13:52:14.142Z,9.40
2019-02-25T13:54:46.499Z,9.75
2019-02-25T13:57:22.550Z,9.75
2019-02-25T13:59:56.668Z,8.53
2019-02-25T14:02:31.892Z,9.47
2019-02-25T14:05:09.477Z,10.00
2019-02-25T14:07:43.718Z,9.50
2019-02-25T14:10:24.895Z,9.30
2019-02-25T14:13:09.741Z,9.20
2019-02-25T14:15:59.562Z,8.63
2019-02-25T14:18:39.477Z,9.27
2019-02-25T14:21:17.591Z,8.70
2019-02-25T14:24:05.472Z,9.07
2019-02-25T14:26:49.003Z,8.70
2019-02-25T14:29:27.561Z,9.40
2019-02-25T14:32:10.937Z,8.97
2019-02-25T14:34:46.011Z,8.80
2019-02-25T14:37:26.869Z,8.20
2019-02-25T14:40:00.689Z,8.87
2019-02-25T14:42:35.910Z,9.00
2019-02-25T14:45:19.672Z,8.50
2019-02-25T14:48:02.593Z,8.03
2019-02-25T14:50:33.154Z,8.43
2019-02-25T14:53:11.411Z,8.50
2019-02-25T14:55:58.501Z,7.80
2019-02-25T14:58:48.865Z,9.07
2019-02-25T15:01:23.314Z,8.70
2019-02-25T15:03:51.474Z,8.67
2019-02-25T15:06:23.731Z,8.30
2019-02-25T15:09:01.788Z,7.87
2019-02-25T15:11:28.863Z,9.07
2019-02-25T15:16:56.438Z,8.33
2019-02-25T15:19:32.098Z,7.87
2019-02-25T15:22:09.042Z,7.87
2019-02-25T15:24:39.426Z,7.67
2019-02-25T15:27:11.021Z,8.17
2019-02-25T15:29:49.097Z,7.97
2019-02-25T15:32:26.016Z,9.50
2019-02-25T15:35:01.457Z,8.67
2019-02-25T15:37:34.083Z,8.47
2019-02-25T15:40:09.734Z,8.20
2019-02-25T15:42:48.530Z,8.60
2019-02-25T15:45:27.019Z,8.50
2019-02-25T15:48:14.593Z,8.70
2019-02-25T15:50:48.485Z,9.13
2019-02-25T15:53:37.157Z,9.00
2019-02-25T15:56:13.624Z,9.30
2019-02-25T15:58:49.404Z,9.23
2019-02-25T16:01:22.509Z,8.53
2019-02-25T16:04:02.933Z,9.57
2019-02-25T16:06:53.750Z,8.60
2019-02-25T16:12:09.780Z,9.00
2019-02-25T16:14:56.738Z,9.17
2019-02-25T16:17:35.180Z,9.07
2019-02-25T16:20:17.508Z,9.90
2019-02-25T16:22:48.673Z,9.27
2019-02-25T16:25:27.093Z,7.80
2019-02-25T16:28:00.926Z,8.17
2019-02-25T16:30:41.800Z,8.43
2019-02-25T16:33:07.824Z,8.83
2019-02-25T16:35:43.529Z,9.73
2019-02-25T16:38:21.122Z,9.23
2019-02-25T16:41:03.268Z,9.03
2019-02-25T16:43:44.054Z,9.67
2019-02-25T16:46:25.477Z,9.33
2019-02-25T16:48:57.398Z,9.37
2019-02-25T16:51:37.604Z,8.93
2019-02-25T16:54:18.167Z,9.90
2019-02-25T16:56:52.026Z,9.97
2019-02-25T16:59:20.713Z,9.80
2019-02-25T17:01:51.817Z,10.20
2019-02-25T17:04:31.965Z,10.30
2019-02-25T17:07:11.793Z,9.40
2019-02-25T17:09:52.734Z,9.80
2019-02-25T17:12:25.378Z,10.23
2019-02-25T17:15:12.040Z,11.50
2019-02-25T17:17:49.085Z,11.83
2019-02-25T17:20:28.109Z,10.83
2019-02-25T17:23:09.516Z,10.43
2019-02-25T17:25:47.116Z,10.47
2019-02-25T17:28:22.669Z,10.70
2019-02-25T17:30:58.642Z,11.63
2019-02-25T17:33:35.031Z,11.13
2019-02-25T17:36:10.209Z,11.30
2019-02-25T17:38:43.206Z,10.07
2019-02-25T17:41:16.492Z,10.20
2019-02-25T17:43:59.309Z,11.00
2019-02-25T17:46:34.955Z,12.37
2019-02-25T17:49:18.916Z,11.17
2019-02-25T17:51:51.126Z,11.60
2019-02-25T17:54:25.026Z,11.13
2019-02-25T17:56:58.985Z,12.50
2019-02-25T17:59:32.524Z,12.57
2019-02-25T18:02:08.344Z,11.83
2019-02-25T18:04:47.129Z,11.73
2019-02-25T18:07:24.150Z,11.87
2019-02-25T18:09:58.922Z,11.93
2019-02-25T18:12:33.781Z,11.67
2019-02-25T18:15:05.206Z,12.03
2019-02-25T18:17:46.745Z,12.13
2019-02-25T18:20:17.718Z,11.70
2019-02-25T18:22:56.242Z,12.47
2019-02-25T18:25:29.597Z,13.10
2019-02-25T18:28:08.380Z,13.30
2019-02-25T18:30:41.507Z,13.10
2019-02-25T18:33:17.467Z,13.00
2019-02-25T18:35:54.653Z,12.20
2019-02-25T18:38:31.708Z,13.57
2019-02-25T18:41:04.723Z,14.30
2019-02-25T18:43:44.904Z,14.57
2019-02-25T18:46:21.310Z,13.40
2019-02-25T18:49:04.718Z,12.93
2019-02-25T18:51:39.691Z,13.50
2019-02-25T18:54:16.928Z,14.23
2019-02-25T18:56:50.016Z,13.40
2019-02-25T18:59:23.091Z,13.33
2019-02-25T19:01:55.743Z,13.83
2019-02-25T19:04:30.803Z,12.80
2019-02-25T19:07:06.175Z,14.10
2019-02-25T19:09:35.961Z,13.50
2019-02-25T19:12:05.434Z,15.23
2019-02-25T19:14:34.896Z,14.23
2019-02-25T19:17:06.392Z,14.93
2019-02-25T19:19:38.185Z,14.47
2019-02-25T19:22:08.257Z,12.77
2019-02-25T19:24:41.952Z,12.43
2019-02-25T19:27:10.542Z,12.60
2019-02-25T19:29:40.579Z,14.30
2019-02-25T19:32:10.388Z,14.07
2019-02-25T19:34:39.966Z,14.37
2019-02-25T19:37:10.413Z,15.20
2019-02-25T19:39:41.469Z,14.93
2019-02-25T19:42:15.402Z,14.03
2019-02-25T19:44:43.739Z,12.93
2019-02-25T19:47:14.245Z,12.73
2019-02-25T19:49:45.889Z,13.30
2019-02-25T19:52:16.768Z,13.03
2019-02-25T19:54:48.804Z,13.50
2019-02-25T19:57:18.783Z,12.90
2019-02-25T19:59:50.590Z,14.30
2019-02-25T20:02:20.206Z,14.03
2019-02-25T20:04:51.936Z,13.80
2019-02-25T20:07:25.686Z,13.60
2019-02-25T20:09:52.246Z,14.40
2019-02-25T20:12:22.031Z,14.17
2019-02-25T20:14:51.506Z,13.90
2019-02-25T20:17:21.614Z,13.67
2019-02-25T20:19:52.207Z,15.03
2019-02-25T20:22:21.690Z,13.27
2019-02-25T20:24:54.690Z,13.27
2019-02-25T20:27:22.727Z,13.23
2019-02-25T20:29:52.486Z,15.13
2019-02-25T20:32:22.267Z,15.33
2019-02-25T20:34:52.865Z,13.67
2019-02-25T20:37:24.980Z,14.10
2019-02-25T20:39:54.472Z,13.20
2019-02-25T20:42:25.832Z,14.13
2019-02-25T20:44:57.379Z,13.23
2019-02-25T20:47:28.520Z,13.80
2019-02-25T20:49:57.925Z,13.83
2019-02-25T20:52:28.416Z,13.87
2019-02-25T20:54:58.161Z,14.03
2019-02-25T20:57:29.518Z,14.27
2019-02-25T20:59:58.803Z,14.57
2019-02-25T21:02:28.278Z,13.77
2019-02-25T21:04:58.250Z,13.57
2019-02-25T21:07:29.600Z,13.53
2019-02-25T21:10:00.783Z,15.23
2019-02-25T21:12:30.172Z,12.43
2019-02-25T21:14:59.947Z,13.60
2019-02-25T21:17:30.862Z,13.43
2019-02-25T21:20:02.742Z,12.47
2019-02-25T21:22:33.825Z,13.40
2019-02-25T21:25:04.757Z,13.57
2019-02-25T21:27:34.734Z,14.13
2019-02-25T21:30:11.089Z,14.30
2019-02-25T21:32:43.233Z,14.17
2019-02-25T21:35:13.859Z,14.27
2019-02-25T21:37:46.111Z,13.33
2019-02-25T21:40:17.273Z,13.17
2019-02-25T21:42:48.806Z,14.40
2019-02-25T21:45:20.280Z,13.93
2019-02-25T21:47:52.203Z,13.67
2019-02-25T21:50:21.673Z,13.30
2019-02-25T21:52:51.153Z,13.77
2019-02-25T21:55:20.646Z,14.37
2019-02-25T21:57:50.101Z,12.67
2019-02-25T22:00:21.330Z,13.43
2019-02-25T22:02:52.721Z,14.37
2019-02-25T22:05:23.694Z,13.50
2019-02-25T22:07:55.326Z,13.13
2019-02-25T22:10:24.824Z,13.60
2019-02-25T22:12:54.314Z,14.10
2019-02-25T22:15:23.783Z,13.23
2019-02-25T22:17:53.652Z,14.13
2019-02-25T22:20:24.997Z,14.77
2019-02-25T22:22:58.716Z,15.13
2019-02-25T22:25:26.096Z,15.10
2019-02-25T22:27:55.559Z,15.47
2019-02-25T22:30:25.107Z,15.83
2019-02-25T22:32:54.584Z,15.57
2019-02-25T22:35:24.072Z,15.60
2019-02-25T22:37:55.456Z,15.67
2019-02-25T22:40:24.791Z,14.97
2019-02-25T22:42:54.932Z,16.10
2019-02-25T22:45:25.842Z,15.67
2019-02-25T22:47:55.317Z,15.87
2019-02-25T22:50:24.797Z,15.77
2019-02-25T22:52:58.278Z,14.80
2019-02-25T22:55:25.445Z,15.27
2019-02-25T22:57:55.262Z,15.60
2019-02-25T23:00:36.839Z,14.57
2019-02-25T23:03:06.861Z,14.53
2019-02-25T23:05:39.067Z,14.90
2019-02-25T23:08:10.967Z,13.27
2019-02-25T23:10:41.973Z,13.50
2019-02-25T23:13:10.410Z,13.50
2019-02-25T23:15:42.040Z,13.23
2019-02-25T23:18:13.879Z,13.07
2019-02-25T23:20:42.257Z,12.97
2019-02-25T23:23:11.782Z,13.97
2019-02-25T23:25:41.479Z,13.17
2019-02-25T23:28:10.991Z,13.87
2019-02-25T23:30:42.284Z,13.53
2019-02-25T23:33:14.332Z,15.50
2019-02-25T23:35:46.595Z,13.80
2019-02-25T23:38:14.746Z,13.43
2019-02-25T23:40:45.128Z,14.20
2019-02-25T23:43:16.817Z,13.50
2019-02-25T23:45:46.719Z,12.70
2019-02-25T23:48:16.351Z,13.37
2019-02-25T23:50:45.834Z,12.97
2019-02-25T23:53:15.299Z,14.23
2019-02-25T23:55:47.289Z,13.00
2019-02-25T23:58:17.304Z,13.57
